Wakulla Springs, Florida
Current Conditions -  °F | °C
As of 3:40 AM on Sunday 21 Dec 2014 (Local Time) from KTLH Reporting Station
Overcast Overcast  
Wind Chill: 56°   Ceiling: 700
Heat Index: 56°   Visibility: 10mi
Dew Point: 52°   Wind: 8mph
Humidity: 87%   Direction: 70°ENE
Pressure: 30.08"   Gusts: NA
Location:  30.23°N, 84.31°W
Report Text: KTLH 210840Z AUTO 07007KT 10SM BKN007 OVC036 13/11 A3008 RMK AO2 RAB20E34 P0001 T01330111 $
Loading
Personal Weather Stations






























Interactive Weather Map New forecast layout! Learn more

10-Day Weather Forecast

Advertisements
Track Severe Weather on mobile